Time;durP1;ratioP1;P1;durP2;ratioP2;P2;SDS_P1;SDS_P2;PMS_P1;PMS_P2;Temp;Humidity;BMP_temperature;BMP_pressure;BME280_temperature;BME280_humidity;BME280_pressure;Samples;Min_cycle;Max_cycle;Signal;HPM_P1;HPM_P2
2023/06/05 00:01:17;;;;;;;4.30;1.90;;;;;;;12.90;100.00;101261.81;6247796;28;20041;-93
2023/06/05 00:04:20;;;;;;;3.58;1.90;;;;;;;12.88;100.00;101265.47;6245004;28;20195;-93
2023/06/05 00:07:22;;;;;;;2.72;1.90;;;;;;;12.83;100.00;101271.00;6241851;28;20050;-92
2023/06/05 00:10:24;;;;;;;4.10;2.10;;;;;;;12.85;100.00;101263.94;6245370;28;20068;-93
2023/06/05 00:13:29;;;;;;;3.55;1.75;;;;;;;12.82;100.00;101265.94;6250544;28;20048;-93
2023/06/05 00:16:31;;;;;;;3.40;1.98;;;;;;;12.74;100.00;101268.28;6244338;28;20041;-93
2023/06/05 00:19:34;;;;;;;3.88;1.80;;;;;;;12.67;100.00;101260.97;6240292;28;20053;-92
2023/06/05 00:22:39;;;;;;;4.20;1.98;;;;;;;12.61;100.00;101277.00;6246180;28;20054;-93
2023/06/05 00:25:44;;;;;;;3.22;2.03;;;;;;;12.55;100.00;101272.28;6241334;28;20043;-92
2023/06/05 00:28:46;;;;;;;3.35;2.22;;;;;;;12.53;100.00;101262.97;6247811;28;20410;-93
2023/06/05 00:31:48;;;;;;;3.03;1.60;;;;;;;12.46;100.00;101260.81;6249533;28;20047;-93
2023/06/05 00:34:50;;;;;;;4.30;2.03;;;;;;;12.52;100.00;101266.50;6245967;28;20037;-92
2023/06/05 00:37:52;;;;;;;3.53;1.92;;;;;;;12.40;100.00;101266.47;6243288;28;20547;-92
2023/06/05 00:40:54;;;;;;;4.80;2.40;;;;;;;12.38;100.00;101259.75;6246989;28;20244;-93
2023/06/05 00:43:56;;;;;;;7.78;1.88;;;;;;;12.35;100.00;101267.78;6249464;28;20558;-93
2023/06/05 00:46:59;;;;;;;2.25;1.80;;;;;;;12.26;100.00;101264.91;6247609;28;20044;-93
2023/06/05 00:50:02;;;;;;;4.80;2.08;;;;;;;12.29;100.00;101267.25;6240731;28;20458;-92
2023/06/05 00:53:06;;;;;;;5.47;2.00;;;;;;;12.23;100.00;101265.13;6239760;28;20064;-92
2023/06/05 00:56:09;;;;;;;5.95;2.60;;;;;;;12.16;100.00;101268.31;6236745;28;20081;-93
2023/06/05 00:59:13;;;;;;;4.82;2.20;;;;;;;12.10;100.00;101261.81;6245631;28;20100;-92
2023/06/05 01:02:16;;;;;;;5.03;2.00;;;;;;;12.05;100.00;101256.13;6249236;28;20111;-93
2023/06/05 01:05:18;;;;;;;3.75;1.98;;;;;;;11.99;100.00;101253.97;6246540;28;20049;-93
2023/06/05 01:08:24;;;;;;;3.72;2.08;;;;;;;11.95;100.00;101249.94;6249323;28;20056;-93
2023/06/05 01:11:51;;;;;;;4.78;2.50;;;;;;;11.83;100.00;101246.44;6232327;28;20045;-93
2023/06/05 01:14:58;;;;;;;4.68;2.08;;;;;;;11.78;100.00;101248.56;6231557;28;20419;-93
2023/06/05 01:18:02;;;;;;;3.95;2.47;;;;;;;11.76;100.00;101256.44;6247555;28;20052;-93
2023/06/05 01:21:11;;;;;;;8.20;3.08;;;;;;;11.69;100.00;101250.03;6246101;28;20044;-92
2023/06/05 01:24:15;;;;;;;4.55;2.60;;;;;;;11.71;100.00;101257.72;6248698;28;20495;-93
2023/06/05 01:27:42;;;;;;;4.53;2.30;;;;;;;11.61;100.00;101252.34;6235390;28;20053;-93
2023/06/05 01:30:54;;;;;;;4.53;2.53;;;;;;;11.67;100.00;101245.88;6246939;28;20048;-93
2023/06/05 01:34:05;;;;;;;3.97;2.50;;;;;;;11.67;100.00;101244.13;6224180;28;20392;-93
2023/06/05 01:37:08;;;;;;;3.47;2.35;;;;;;;11.62;100.00;101241.03;6245505;28;20052;-92
2023/06/05 01:40:13;;;;;;;4.93;2.38;;;;;;;11.54;100.00;101244.19;6242308;28;20622;-93
2023/06/05 01:43:17;;;;;;;2.75;2.20;;;;;;;11.57;100.00;101237.94;6245777;28;20680;-93
2023/06/05 01:46:22;;;;;;;2.50;2.30;;;;;;;11.54;100.00;101245.94;6242212;28;20052;-93
2023/06/05 01:49:24;;;;;;;4.95;2.22;;;;;;;11.41;100.00;101244.22;6244199;28;20048;-93
2023/06/05 01:52:26;;;;;;;4.68;2.63;;;;;;;11.39;100.00;101243.50;6254282;28;20085;-93
2023/06/05 01:55:28;;;;;;;5.45;2.50;;;;;;;11.38;100.00;101246.22;6243389;28;20562;-92
2023/06/05 01:58:30;;;;;;;3.97;2.50;;;;;;;11.36;100.00;101242.91;6228691;28;20049;-92
2023/06/05 02:01:32;;;;;;;4.20;2.60;;;;;;;11.31;100.00;101232.84;6242964;28;20049;-92
2023/06/05 02:04:34;;;;;;;5.35;2.50;;;;;;;11.31;100.00;101230.25;6244451;28;20040;-92
2023/06/05 02:07:55;;;;;;;4.40;2.63;;;;;;;11.33;100.00;101231.00;6238041;28;20045;-92
2023/06/05 02:10:57;;;;;;;;;;;;;;;11.24;100.00;101236.81;6230170;28;20056;-92
2023/06/05 02:13:59;;;;;;;5.00;2.33;;;;;;;11.21;100.00;101234.44;6251754;28;19924;-92
2023/06/05 02:17:05;;;;;;;3.55;2.40;;;;;;;11.21;100.00;101231.84;6259583;28;20045;-93
2023/06/05 02:20:10;;;;;;;4.20;2.40;;;;;;;11.22;100.00;101238.69;6236698;28;20439;-93
2023/06/05 02:23:11;;;;;;;5.85;3.35;;;;;;;11.12;100.00;101235.09;6243787;28;20647;-93
2023/06/05 02:26:16;;;;;;;7.82;2.60;;;;;;;11.10;100.00;101232.59;6252368;28;20483;-92
2023/06/05 02:29:18;;;;;;;4.78;2.85;;;;;;;11.05;100.00;101236.44;6248358;28;20420;-93
2023/06/05 02:32:20;;;;;;;3.97;2.67;;;;;;;11.03;100.00;101231.38;6249460;28;20503;-92
2023/06/05 02:35:23;;;;;;;4.30;3.00;;;;;;;11.03;100.00;101228.78;6249522;28;20131;-92
2023/06/05 02:38:26;;;;;;;3.90;2.70;;;;;;;10.97;100.00;101227.44;6247090;28;20052;-92
2023/06/05 02:41:28;;;;;;;5.80;3.38;;;;;;;10.96;100.00;101223.19;6248950;28;20426;-93
2023/06/05 02:44:30;;;;;;;4.93;2.83;;;;;;;10.88;100.00;101222.91;6258630;28;20471;-92
2023/06/05 02:47:33;;;;;;;5.03;2.67;;;;;;;10.87;100.00;101216.06;6244265;28;20052;-92
2023/06/05 02:50:35;;;;;;;4.70;3.20;;;;;;;10.86;100.00;101229.97;6237607;28;20045;-92
2023/06/05 02:53:40;;;;;;;4.50;2.90;;;;;;;10.85;100.00;101225.69;6243992;28;20231;-92
2023/06/05 02:56:45;;;;;;;3.40;2.60;;;;;;;10.75;100.00;101228.09;6260660;28;20040;-92
2023/06/05 02:59:47;;;;;;;4.13;2.80;;;;;;;10.77;100.00;101226.22;6244073;28;20140;-92
2023/06/05 03:02:52;;;;;;;4.63;2.97;;;;;;;10.77;100.00;101223.63;6240436;28;20057;-92
2023/06/05 03:06:04;;;;;;;5.53;3.22;;;;;;;10.74;100.00;101223.84;6236770;28;21242;-92
2023/06/05 03:09:08;;;;;;;4.10;2.90;;;;;;;10.80;100.00;101225.19;6250476;28;20057;-92
2023/06/05 03:12:09;;;;;;;5.18;3.20;;;;;;;10.75;100.00;101219.50;6244583;28;20407;-92
2023/06/05 03:15:12;;;;;;;5.10;3.10;;;;;;;10.74;100.00;101217.84;6238087;28;20074;-92
2023/06/05 03:18:15;;;;;;;6.00;3.22;;;;;;;10.79;100.00;101223.53;6244354;28;20048;-92
2023/06/05 03:21:17;;;;;;;5.05;3.25;;;;;;;10.75;100.00;101220.31;6246851;28;20211;-91
2023/06/05 03:24:20;;;;;;;4.95;3.20;;;;;;;10.76;100.00;101216.00;6243890;28;20503;-92
2023/06/05 03:27:28;;;;;;;4.47;3.40;;;;;;;10.70;100.00;101217.22;6236480;28;20140;-92
2023/06/05 03:30:30;;;;;;;4.20;3.25;;;;;;;10.69;100.00;101215.56;6239408;28;20566;-92
2023/06/05 03:33:34;;;;;;;6.93;3.20;;;;;;;10.71;100.00;101210.28;6265597;28;20481;-92
2023/06/05 03:36:39;;;;;;;5.93;3.35;;;;;;;10.69;100.00;101217.34;6253918;28;20066;-92
2023/06/05 03:39:44;;;;;;;3.95;3.13;;;;;;;10.60;100.00;101215.38;6241711;28;20054;-92
2023/06/05 03:42:46;;;;;;;5.20;3.33;;;;;;;10.60;100.00;101211.00;6248078;28;20037;-92
2023/06/05 03:45:49;;;;;;;4.50;2.92;;;;;;;10.63;100.00;101210.78;6260618;28;20176;-92
2023/06/05 03:48:59;;;;;;;3.97;3.13;;;;;;;10.67;100.00;101214.84;6208511;28;20356;-92
2023/06/05 03:52:02;;;;;;;6.43;3.88;;;;;;;10.65;100.00;101211.53;6247127;28;20046;-92
2023/06/05 03:55:09;;;;;;;5.82;3.67;;;;;;;10.72;100.00;101215.34;6250961;28;20392;-92
2023/06/05 03:58:14;;;;;;;5.85;3.90;;;;;;;10.70;100.00;101211.22;6262805;28;20037;-92
2023/06/05 04:01:18;;;;;;;6.20;3.60;;;;;;;10.71;100.00;101208.53;6247926;28;20050;-92
2023/06/05 04:04:20;;;;;;;5.28;3.03;;;;;;;10.73;100.00;101211.84;6238565;28;20041;-92
2023/06/05 04:07:22;;;;;;;7.07;3.83;;;;;;;10.75;100.00;101220.31;6223284;28;20049;-92
2023/06/05 04:10:24;;;;;;;6.07;3.85;;;;;;;10.76;100.00;101218.56;6244238;28;20070;-92
2023/06/05 04:13:26;;;;;;;4.45;3.78;;;;;;;10.79;100.00;101218.34;6221138;28;20063;-92
2023/06/05 04:16:29;;;;;;;5.75;3.80;;;;;;;10.87;100.00;101226.41;6229288;28;20451;-92
2023/06/05 04:19:31;;;;;;;5.97;3.78;;;;;;;10.87;100.00;101221.25;6245352;28;20048;-92
2023/06/05 04:22:33;;;;;;;6.47;4.00;;;;;;;10.84;100.00;101215.44;6235721;28;20357;-92
2023/06/05 04:25:35;;;;;;;6.72;4.22;;;;;;;10.86;100.00;101219.59;6239737;28;20040;-93
2023/06/05 04:28:38;;;;;;;6.68;4.15;;;;;;;10.92;100.00;101223.50;6244731;28;20059;-92
2023/06/05 04:31:47;;;;;;;5.90;3.80;;;;;;;10.95;100.00;101223.28;6239078;28;20041;-92
2023/06/05 04:34:52;;;;;;;9.35;4.10;;;;;;;11.03;100.00;101217.56;6250027;28;20407;-92
2023/06/05 04:37:54;;;;;;;7.75;4.25;;;;;;;10.96;100.00;101225.78;6258263;28;20139;-92
2023/06/05 04:40:56;;;;;;;6.88;4.25;;;;;;;11.03;100.00;101225.34;6241726;28;20501;-92
2023/06/05 04:43:59;;;;;;;6.82;3.95;;;;;;;11.08;100.00;101228.44;6239390;28;20029;-92
2023/06/05 04:47:07;;;;;;;7.07;4.13;;;;;;;11.11;100.00;101226.50;6246741;28;20053;-92
2023/06/05 04:50:22;;;;;;;6.97;4.20;;;;;;;11.09;100.00;101223.16;6233843;28;20060;-92
2023/06/05 04:53:24;;;;;;;6.40;4.50;;;;;;;11.12;100.00;101222.13;6245203;28;20131;-92
2023/06/05 04:56:26;;;;;;;6.78;4.45;;;;;;;11.11;100.00;101223.06;6240496;28;21146;-92
2023/06/05 04:59:32;;;;;;;7.10;4.10;;;;;;;11.15;100.00;101216.72;6232192;28;20057;-92
2023/06/05 05:02:36;;;;;;;7.60;4.72;;;;;;;11.17;100.00;101214.84;6223437;28;20071;-92
2023/06/05 05:05:39;;;;;;;6.10;4.15;;;;;;;11.12;100.00;101211.75;6241078;28;20048;-93
2023/06/05 05:08:43;;;;;;;6.13;4.30;;;;;;;11.17;100.00;101212.25;6243817;28;20352;-93
2023/06/05 05:11:45;;;;;;;7.43;4.50;;;;;;;11.22;100.00;101220.53;6245629;28;20061;-92
2023/06/05 05:14:47;;;;;;;6.15;4.03;;;;;;;11.27;100.00;101212.44;6247966;28;20067;-92
2023/06/05 05:17:51;;;;;;;6.18;4.72;;;;;;;11.33;100.00;101222.38;6221927;28;20095;-92
2023/06/05 05:20:53;;;;;;;6.95;4.63;;;;;;;11.34;100.00;101222.28;6226088;28;20527;-92
2023/06/05 05:23:57;;;;;;;6.40;4.32;;;;;;;11.34;100.00;101218.84;6243177;28;20124;-92
2023/06/05 05:27:00;;;;;;;10.05;5.03;;;;;;;11.37;100.00;101221.22;6225506;28;20092;-92
2023/06/05 05:30:02;;;;;;;5.85;4.20;;;;;;;11.45;100.00;101223.25;6242088;28;20502;-93
2023/06/05 05:33:04;;;;;;;6.65;4.43;;;;;;;11.55;100.00;101221.66;6247126;28;20109;-92
2023/06/05 05:36:07;;;;;;;7.88;4.70;;;;;;;11.64;100.00;101221.00;6258779;28;20184;-92
2023/06/05 05:39:10;;;;;;;7.38;4.90;;;;;;;11.68;100.00;101221.63;6243770;28;20052;-93
2023/06/05 05:42:12;;;;;;;6.57;4.70;;;;;;;11.69;100.00;101225.88;6250161;28;20045;-93
2023/06/05 05:45:13;;;;;;;8.85;4.40;;;;;;;11.75;100.00;101221.06;6243180;28;20139;-93
2023/06/05 05:48:15;;;;;;;9.13;5.18;;;;;;;11.85;100.00;101221.22;6248549;28;20503;-93
2023/06/05 05:51:17;;;;;;;8.57;5.18;;;;;;;11.91;100.00;101225.16;6245854;28;20509;-93
2023/06/05 05:54:22;;;;;;;8.57;4.68;;;;;;;12.01;100.00;101226.13;6241052;28;20049;-92
2023/06/05 05:57:24;;;;;;;6.70;4.45;;;;;;;12.07;100.00;101230.88;6245167;28;20436;-93
2023/06/05 06:00:28;;;;;;;8.98;5.07;;;;;;;12.18;100.00;101223.13;6237726;28;20051;-93
2023/06/05 06:03:32;;;;;;;8.00;4.90;;;;;;;12.28;100.00;101231.06;6241010;28;20439;-93
2023/06/05 06:06:35;;;;;;;7.80;4.78;;;;;;;12.32;100.00;101244.63;6247545;28;20558;-93
2023/06/05 06:09:38;;;;;;;9.80;4.82;;;;;;;12.39;100.00;101240.63;6235050;28;20053;-93
2023/06/05 06:12:41;;;;;;;8.02;4.70;;;;;;;12.44;100.00;101233.31;6241971;28;20444;-92
2023/06/05 06:15:44;;;;;;;8.13;5.10;;;;;;;12.49;100.00;101234.59;6246381;28;20050;-93
2023/06/05 06:18:46;;;;;;;7.25;5.00;;;;;;;12.57;100.00;101241.84;6242342;28;20037;-92
2023/06/05 06:21:50;;;;;;;9.93;4.57;;;;;;;12.65;100.00;101236.88;6241950;28;20167;-93
2023/06/05 06:24:53;;;;;;;13.20;5.85;;;;;;;12.76;100.00;101243.84;6236944;28;20029;-93
2023/06/05 06:27:56;;;;;;;7.50;4.82;;;;;;;12.86;100.00;101239.59;6233642;28;20128;-93
2023/06/05 06:30:58;;;;;;;9.43;5.28;;;;;;;12.95;100.00;101251.06;6247074;28;20041;-93
2023/06/05 06:34:00;;;;;;;9.73;5.40;;;;;;;13.02;100.00;101247.06;6246003;28;20053;-92
2023/06/05 06:37:03;;;;;;;6.95;5.28;;;;;;;13.06;100.00;101239.81;6246975;28;20048;-92
2023/06/05 06:40:10;;;;;;;8.70;5.32;;;;;;;13.13;100.00;101238.41;6239989;28;20115;-93
2023/06/05 06:43:12;;;;;;;9.90;5.60;;;;;;;13.15;100.00;101237.34;6259925;28;20053;-93
2023/06/05 06:46:31;;;;;;;9.05;5.72;;;;;;;13.29;100.00;101241.50;6227066;28;20115;-93
2023/06/05 06:49:39;;;;;;;11.57;5.38;;;;;;;13.33;100.00;101250.69;6244541;28;20044;-93
2023/06/05 06:52:41;;;;;;;6.68;4.95;;;;;;;13.38;100.00;101252.94;6249202;28;20040;-92
2023/06/05 06:55:43;;;;;;;12.75;5.82;;;;;;;13.47;100.00;101259.19;6239571;28;20048;-94
2023/06/05 06:58:48;;;;;;;8.10;4.88;;;;;;;13.53;100.00;101249.09;6242634;28;20053;-93
2023/06/05 07:02:29;;;;;;;7.88;4.78;;;;;;;13.62;100.00;101244.94;6240403;28;20071;-93
2023/06/05 07:05:31;;;;;;;18.10;10.20;;;;;;;13.73;100.00;101247.50;6209532;28;20046;-93
2023/06/05 07:08:33;;;;;;;7.25;5.25;;;;;;;13.83;100.00;101236.34;6212378;28;20046;-93
2023/06/05 07:11:35;;;;;;;7.72;5.15;;;;;;;13.98;100.00;101242.91;6214821;28;20290;-93
2023/06/05 07:14:37;;;;;;;7.35;5.03;;;;;;;14.06;100.00;101237.06;6221018;28;20077;-94
2023/06/05 07:17:40;;;;;;;8.20;5.20;;;;;;;14.07;100.00;101236.13;6200393;28;20044;-93
2023/06/05 07:20:41;;;;;;;7.45;5.22;;;;;;;14.11;100.00;101233.16;6219929;28;20046;-93
2023/06/05 07:23:47;;;;;;;9.27;4.93;;;;;;;14.20;100.00;101239.38;6211286;28;20045;-93
2023/06/05 07:26:53;;;;;;;5.72;4.63;;;;;;;14.30;100.00;101242.84;6198652;28;20076;-93
2023/06/05 07:29:56;;;;;;;7.00;4.78;;;;;;;14.47;100.00;101240.63;6220304;28;20045;-93
2023/06/05 07:32:58;;;;;;;7.68;4.00;;;;;;;14.66;100.00;101245.97;6196796;28;20427;-93
2023/06/05 07:36:00;;;;;;;8.40;4.35;;;;;;;14.70;100.00;101244.75;6234705;28;20048;-93
2023/06/05 07:39:03;;;;;;;5.85;3.75;;;;;;;14.85;100.00;101240.81;6248548;28;20443;-93
2023/06/05 07:42:06;;;;;;;7.63;4.15;;;;;;;14.92;100.00;101240.31;6255175;28;20493;-94
2023/06/05 07:45:08;;;;;;;8.00;4.38;;;;;;;15.06;100.00;101238.16;6248583;28;20535;-92
2023/06/05 07:48:10;;;;;;;7.05;3.70;;;;;;;15.12;100.00;101242.00;6245683;28;20049;-93
2023/06/05 07:51:12;;;;;;;6.78;4.13;;;;;;;15.14;100.00;101237.50;6236336;28;20523;-94
2023/06/05 07:54:21;;;;;;;10.60;4.85;;;;;;;15.24;100.00;101238.34;6245117;28;20052;-93
2023/06/05 07:57:28;;;;;;;7.70;3.92;;;;;;;15.38;100.00;101231.94;6238135;28;20121;-94
2023/06/05 08:00:33;;;;;;;7.57;4.23;;;;;;;15.49;100.00;101241.41;6244617;28;20037;-94
2023/06/05 08:03:35;;;;;;;8.48;4.22;;;;;;;15.64;100.00;101232.22;6244828;28;20418;-94
2023/06/05 08:06:39;;;;;;;7.93;3.92;;;;;;;15.79;100.00;101237.06;6242843;28;20069;-94
2023/06/05 08:09:42;;;;;;;8.57;4.47;;;;;;;15.87;100.00;101237.19;6245141;28;20095;-93
2023/06/05 08:12:44;;;;;;;7.18;4.15;;;;;;;15.99;100.00;101241.31;6246566;28;20048;-93
2023/06/05 08:15:47;;;;;;;7.63;4.00;;;;;;;16.11;100.00;101231.53;6240700;28;20172;-93
2023/06/05 08:18:51;;;;;;;7.47;4.20;;;;;;;16.25;100.00;101230.28;6244545;28;20041;-93
2023/06/05 08:21:54;;;;;;;8.23;4.57;;;;;;;16.37;100.00;101226.53;6236830;28;20442;-93
2023/06/05 08:24:59;;;;;;;8.30;4.50;;;;;;;16.59;100.00;101227.97;6238323;28;20053;-93
2023/06/05 08:28:01;;;;;;;6.93;3.90;;;;;;;16.64;100.00;101227.53;6245859;28;20513;-93
2023/06/05 08:31:05;;;;;;;4.68;3.85;;;;;;;16.67;100.00;101222.03;6243320;28;20037;-94
2023/06/05 08:34:08;;;;;;;8.65;5.00;;;;;;;16.70;100.00;101222.56;6243202;28;20041;-94
2023/06/05 08:37:09;;;;;;;8.50;4.82;;;;;;;16.90;100.00;101220.72;6245274;28;20597;-93
2023/06/05 08:40:11;;;;;;;8.82;4.38;;;;;;;17.03;100.00;101220.38;6242380;28;20133;-93
2023/06/05 08:43:14;;;;;;;7.78;4.57;;;;;;;17.17;100.00;101219.88;6244902;28;20049;-92
2023/06/05 08:46:15;;;;;;;7.18;4.55;;;;;;;17.25;100.00;101218.34;6241631;28;20045;-92
2023/06/05 08:49:25;;;;;;;8.27;4.50;;;;;;;17.30;100.00;101211.69;6244475;28;20045;-93
2023/06/05 08:52:37;;;;;;;10.20;5.03;;;;;;;17.37;100.00;101197.03;6259732;28;20068;-93
2023/06/05 08:55:39;;;;;;;8.18;4.38;;;;;;;17.51;100.00;101207.94;6250241;28;20029;-92
2023/06/05 08:58:43;;;;;;;8.43;4.50;;;;;;;17.77;100.00;101203.59;6247987;28;20392;-93
2023/06/05 09:01:52;;;;;;;6.55;4.53;;;;;;;17.82;100.00;101196.13;6249057;28;20038;-92
2023/06/05 09:04:54;;;;;;;9.70;4.28;;;;;;;17.90;100.00;101198.00;6243940;28;20047;-92
2023/06/05 09:07:56;;;;;;;6.53;4.22;;;;;;;17.93;100.00;101200.28;6240661;28;20044;-92
2023/06/05 09:11:21;;;;;;;7.95;4.53;;;;;;;17.97;100.00;101196.41;6237343;28;20038;-91
2023/06/05 09:14:25;;;;;;;7.50;4.50;;;;;;;18.11;100.00;101196.81;6238093;28;20042;-92
2023/06/05 09:17:27;;;;;;;6.32;4.40;;;;;;;18.27;100.00;101200.38;6247358;28;20099;-92
2023/06/05 09:20:34;;;;;;;9.27;4.88;;;;;;;18.37;100.00;101189.78;6240331;28;20045;-92
2023/06/05 09:23:36;;;;;;;12.25;4.85;;;;;;;18.50;100.00;101195.41;6231848;28;20136;-93
2023/06/05 09:26:59;;;;;;;7.85;4.45;;;;;;;18.61;100.00;101196.94;6245478;28;20056;-91
2023/06/05 09:30:04;;;;;;;6.43;4.13;;;;;;;18.73;100.00;101194.84;6230681;28;20638;-92
2023/06/05 09:33:09;;;;;;;8.35;4.43;;;;;;;18.94;100.00;101197.91;6217180;28;20575;-92
2023/06/05 09:36:13;;;;;;;7.82;4.60;;;;;;;19.09;100.00;101192.03;6236594;28;20080;-92
2023/06/05 09:39:17;;;;;;;6.25;3.88;;;;;;;19.14;100.00;101195.00;6239963;28;20572;-92
2023/06/05 09:42:32;;;;;;;9.88;4.30;;;;;;;19.21;100.00;101192.56;6233659;28;20037;-92
2023/06/05 09:45:47;;;;;;;10.00;4.30;;;;;;;19.34;100.00;101190.28;6240316;28;20029;-91
2023/06/05 09:48:59;;;;;;;9.05;4.55;;;;;;;19.47;100.00;101195.06;6236460;28;20510;-90
2023/06/05 09:52:01;;;;;;;6.10;3.90;;;;;;;19.52;100.00;101190.13;6237399;28;20041;-91
2023/06/05 09:55:06;;;;;;;5.05;3.40;;;;;;;19.59;100.00;101188.50;6238072;28;20140;-92
2023/06/05 09:58:13;;;;;;;8.52;3.50;;;;;;;19.71;100.00;101184.59;6240220;28;20057;-91
2023/06/05 10:01:27;;;;;;;4.95;3.47;;;;;;;19.96;100.00;101181.94;6243863;28;20152;-91
2023/06/05 10:04:32;;;;;;;7.20;3.55;;;;;;;20.13;100.00;101183.56;6242174;28;20046;-91
2023/06/05 10:07:38;;;;;;;5.13;3.10;;;;;;;20.31;98.43;101180.72;6244222;28;20108;-91
2023/06/05 10:10:42;;;;;;;6.15;3.60;;;;;;;20.38;100.00;101172.97;6250055;28;20557;-91
2023/06/05 10:13:45;;;;;;;6.38;3.13;;;;;;;20.42;100.00;101175.09;6244589;28;20041;-91
2023/06/05 10:16:51;;;;;;;4.50;1.90;;;;;;;20.53;88.59;101173.91;6256438;28;20327;-90
2023/06/05 10:19:54;;;;;;;8.25;1.98;;;;;;;20.63;79.30;101178.97;6251006;28;20049;-90
2023/06/05 10:22:57;;;;;;;5.18;1.85;;;;;;;20.72;75.59;101172.69;6242874;28;20042;-91
2023/06/05 10:26:06;;;;;;;3.83;1.75;;;;;;;20.93;83.77;101166.00;6245697;28;20048;-91
2023/06/05 10:29:33;;;;;;;3.83;1.50;;;;;;;21.10;75.29;101170.19;6244259;28;20041;-91
2023/06/05 10:32:47;;;;;;;2.47;1.77;;;;;;;21.33;69.90;101162.28;6243804;28;20044;-91
2023/06/05 10:36:19;;;;;;;3.60;1.73;;;;;;;21.52;67.14;101155.75;6247354;28;20480;-91
2023/06/05 10:39:26;;;;;;;2.33;1.80;;;;;;;21.69;66.11;101157.25;6209546;28;20065;-92
2023/06/05 10:42:29;;;;;;;1.75;1.63;;;;;;;21.68;64.44;101147.69;6219054;28;20064;-91
2023/06/05 10:45:32;;;;;;;5.78;2.20;;;;;;;21.81;72.03;101146.25;6225214;28;20421;-92
2023/06/05 10:49:08;;;;;;;2.47;1.58;;;;;;;21.99;71.12;101151.19;6207156;28;20417;-91
2023/06/05 10:52:37;;;;;;;2.38;1.40;;;;;;;22.11;67.44;101153.19;6208217;28;20045;-91
2023/06/05 10:55:43;;;;;;;2.35;1.58;;;;;;;22.17;65.21;101146.38;6217690;28;20062;-91
2023/06/05 10:59:14;;;;;;;2.55;1.40;;;;;;;22.18;59.23;101142.72;6221164;28;20572;-92
2023/06/05 11:02:25;;;;;;;3.03;1.50;;;;;;;22.22;65.49;101136.13;6206457;28;20487;-91
2023/06/05 11:05:31;;;;;;;2.55;1.75;;;;;;;22.40;60.53;101146.28;6198682;28;20041;-91
2023/06/05 11:08:36;;;;;;;3.80;2.05;;;;;;;22.62;62.84;101141.91;6212615;28;20476;-91
2023/06/05 11:12:00;;;;;;;2.70;1.60;;;;;;;22.83;59.40;101137.66;6214529;28;20065;-90
2023/06/05 11:15:05;;;;;;;5.93;1.75;;;;;;;22.80;60.19;101130.91;6215706;28;20559;-91
2023/06/05 11:18:28;;;;;;;2.10;1.30;;;;;;;22.83;63.05;101135.00;6243763;28;20463;-90
2023/06/05 11:22:08;;;;;;;3.55;1.70;;;;;;;22.91;57.09;101129.63;6244877;28;20048;-92
2023/06/05 11:25:16;;;;;;;4.43;1.88;;;;;;;23.07;59.55;101124.13;6248820;28;20073;-91
2023/06/05 11:28:38;;;;;;;2.35;1.85;;;;;;;23.16;52.66;101124.81;6240377;28;20037;-91
2023/06/05 11:31:40;;;;;;;6.50;1.60;;;;;;;23.36;58.28;101123.16;6241969;28;20041;-91
2023/06/05 11:34:47;;;;;;;2.15;1.70;;;;;;;23.57;51.46;101109.06;6246410;28;20059;-91
2023/06/05 11:38:06;;;;;;;2.20;1.50;;;;;;;23.75;52.42;101115.72;6252740;28;20431;-91
2023/06/05 11:41:09;;;;;;;3.08;1.77;;;;;;;23.90;47.35;101112.97;6238479;28;20130;-91
2023/06/05 11:44:11;;;;;;;2.20;1.77;;;;;;;24.08;49.06;101113.31;6242556;28;20250;-91
2023/06/05 11:47:28;;;;;;;3.95;1.60;;;;;;;24.27;47.72;101115.22;6248387;28;20119;-90
2023/06/05 11:50:30;;;;;;;1.90;1.30;;;;;;;24.45;48.56;101113.88;6239366;28;20503;-90
2023/06/05 11:53:33;;;;;;;2.78;1.52;;;;;;;24.63;49.10;101114.16;6226702;28;20033;-87
2023/06/05 11:56:37;;;;;;;5.20;1.60;;;;;;;24.75;43.98;101111.75;6237506;28;20523;-90
2023/06/05 11:59:46;;;;;;;2.38;1.50;;;;;;;24.85;44.91;101109.50;6237859;28;20435;-90
2023/06/05 12:02:51;;;;;;;2.38;1.63;;;;;;;25.15;50.07;101104.66;6242384;28;20068;-91
2023/06/05 12:05:53;;;;;;;3.13;1.90;;;;;;;25.43;50.20;101106.31;6230958;28;20042;-91
2023/06/05 12:09:10;;;;;;;3.90;1.67;;;;;;;25.64;49.02;101109.75;6248000;28;20041;-90
2023/06/05 12:12:12;;;;;;;3.85;1.75;;;;;;;25.76;48.05;101100.13;6239778;28;20399;-90
2023/06/05 12:15:15;;;;;;;3.17;1.83;;;;;;;25.96;46.14;101100.09;6244928;28;20192;-91
2023/06/05 12:18:19;;;;;;;2.53;1.67;;;;;;;26.11;45.87;101100.69;6246299;28;20507;-91
2023/06/05 12:21:23;;;;;;;3.25;1.73;;;;;;;26.25;44.96;101093.47;6238295;28;20292;-91
2023/06/05 12:24:26;;;;;;;3.65;1.70;;;;;;;26.38;45.81;101100.56;6240129;28;20103;-90
2023/06/05 12:27:34;;;;;;;1.77;1.40;;;;;;;26.55;42.97;101099.06;6243240;28;20505;-91
2023/06/05 12:30:40;;;;;;;1.85;1.60;;;;;;;26.56;45.81;101092.75;6242732;28;20399;-91
2023/06/05 12:33:47;;;;;;;1.95;1.60;;;;;;;26.68;45.68;101092.06;6220445;28;20048;-91
2023/06/05 12:36:55;;;;;;;2.90;1.75;;;;;;;26.85;48.71;101099.28;6238678;28;20245;-90
2023/06/05 12:40:00;;;;;;;4.70;1.95;;;;;;;27.03;45.73;101084.44;6235384;28;20049;-91
2023/06/05 12:43:02;;;;;;;2.45;1.67;;;;;;;27.14;43.78;101089.06;6240567;28;20060;-91
2023/06/05 12:46:07;;;;;;;2.47;1.40;;;;;;;27.22;44.43;101085.34;6234530;28;20037;-91
2023/06/05 12:49:09;;;;;;;2.60;1.70;;;;;;;27.40;44.87;101077.44;6249447;28;20507;-91
2023/06/05 12:52:11;;;;;;;4.93;2.08;;;;;;;27.63;44.00;101074.13;6234927;28;20095;-90
2023/06/05 12:55:13;;;;;;;2.40;1.80;;;;;;;27.74;44.29;101069.09;6239986;28;20045;-91
2023/06/05 12:58:15;;;;;;;3.13;1.60;;;;;;;27.89;42.17;101066.91;6238954;28;20052;-91
2023/06/05 13:01:16;;;;;;;3.17;1.70;;;;;;;27.98;41.14;101064.75;6235540;28;20072;-91
2023/06/05 13:04:19;;;;;;;3.58;1.75;;;;;;;28.12;40.56;101068.88;6245743;28;20260;-91
2023/06/05 13:07:21;;;;;;;2.97;1.30;;;;;;;28.17;40.73;101066.34;6239434;28;20431;-91
2023/06/05 13:10:24;;;;;;;3.22;1.77;;;;;;;28.02;36.67;101058.75;6240604;28;20049;-91
2023/06/05 13:13:28;;;;;;;1.98;1.77;;;;;;;27.87;39.93;101058.31;6241933;28;20038;-90
2023/06/05 13:16:34;;;;;;;2.72;1.60;;;;;;;27.95;37.47;101047.41;6241515;28;20649;-91
2023/06/05 13:19:37;;;;;;;4.80;1.83;;;;;;;28.01;38.16;101043.03;6244370;28;20112;-91
2023/06/05 13:22:42;;;;;;;3.67;1.77;;;;;;;28.09;40.15;101026.72;6229156;28;20060;-90
2023/06/05 13:25:45;;;;;;;3.55;1.60;;;;;;;28.21;40.50;101043.56;6242201;28;20036;-91
2023/06/05 13:28:47;;;;;;;2.42;1.67;;;;;;;28.37;39.24;101044.75;6246413;28;20041;-91
2023/06/05 13:31:49;;;;;;;2.75;2.00;;;;;;;28.54;38.50;101032.47;6241247;28;20038;-91
2023/06/05 13:34:53;;;;;;;2.35;1.70;;;;;;;28.73;39.47;101032.41;6249374;28;20037;-90
2023/06/05 13:37:55;;;;;;;2.28;1.83;;;;;;;28.81;39.70;101028.56;6244592;28;20116;-91
2023/06/05 13:40:57;;;;;;;4.50;1.88;;;;;;;28.85;37.51;101030.56;6241242;28;20033;-91
2023/06/05 13:43:58;;;;;;;2.90;2.00;;;;;;;28.74;36.88;101020.69;6246653;28;20037;-91
2023/06/05 13:47:04;;;;;;;3.13;1.70;;;;;;;28.79;38.01;101020.81;6250183;28;20042;-91
2023/06/05 13:50:06;;;;;;;3.30;2.00;;;;;;;28.87;38.78;101019.66;6250278;28;20049;-91
2023/06/05 13:53:08;;;;;;;2.88;1.52;;;;;;;28.97;38.30;101015.38;6252854;28;20933;-91
2023/06/05 13:56:10;;;;;;;4.18;1.67;;;;;;;28.97;35.83;101009.25;6247415;28;20045;-91
2023/06/05 13:59:13;;;;;;;4.28;1.63;;;;;;;29.03;38.52;100999.50;6242429;28;20037;-90
2023/06/05 14:02:15;;;;;;;3.58;1.80;;;;;;;29.19;37.95;101001.47;6241868;28;20049;-91
2023/06/05 14:05:17;;;;;;;2.05;1.70;;;;;;;29.36;37.75;101004.25;6242463;28;20049;-91
2023/06/05 14:08:20;;;;;;;1.67;1.50;;;;;;;29.55;37.47;101002.25;6246627;28;20050;-91
2023/06/05 14:11:22;;;;;;;3.75;1.90;;;;;;;29.65;37.61;101001.66;6237996;28;20112;-91
2023/06/05 14:14:24;;;;;;;3.42;1.90;;;;;;;29.78;37.54;100998.72;6238285;28;20562;-91